ADDS METAR Data INFO
IDs: Format: Raw Decoded Include TAF

Data at: 2105 UTC 19 Jul 2018

K18A 192055Z AUTO 06006KT 030V110 10SM SCT027 SCT033 BKN050 30/22 A2999 RMK AO2 T02970224
K18A 192035Z AUTO 05007KT 10SM SCT025 BKN034 BKN042 29/22 A2999 RMK AO2 T02910222
K18A 192015Z AUTO 04006KT 10SM SCT025 SCT034 BKN042 29/22 A3000 RMK AO2 T02900223
K18A 191955Z AUTO 05007G16KT 10SM SCT025 SCT031 SCT048 29/22 A2999 RMK AO2 T02920223
K18A 191935Z AUTO 05008KT 360V080 10SM BKN025 BKN033 BKN048 29/22 A3000 RMK AO2 T02870222
K18A 191915Z AUTO 07006KT 030V100 10SM SCT027 BKN034 BKN047 29/22 A3001 RMK AO2 T02860220
K18A 191855Z AUTO 04006KT 10SM SCT026 BKN032 BKN040 29/22 A3001 RMK AO2 T02940224
K18A 191835Z AUTO 06006KT 020V090 10SM BKN028 OVC034 29/22 A3001 RMK AO2 T02860222
K18A 191815Z AUTO 04007KT 360V080 10SM SCT025 BKN030 BKN037 29/22 A3002 RMK AO2 T02910223
K18A 191755Z AUTO 05008G14KT 10SM BKN025 BKN032 29/22 A3002 RMK AO2 T02890222 10293 20231
K18A 191735Z AUTO 06007KT 010V090 10SM BKN023 OVC034 28/22 A3003 RMK AO2 T02760221
K18A 191715Z AUTO 04006KT 10SM BKN021 BKN028 BKN038 29/23 A3003 RMK AO2 T02890225
K18A 191655Z AUTO 05007KT 10SM BKN020 OVC028 27/22 A3004 RMK AO2 T02740223
K18A 191635Z AUTO 06006KT 10SM SCT020 BKN026 BKN033 28/23 A3004 RMK AO2 T02770226
K18A 191615Z AUTO 07007KT 360V100 10SM SCT021 BKN030 BKN040 29/22 A3004 RMK AO2 T02880221
K18A 191555Z AUTO 09008G15KT 050V110 10SM BKN019 BKN025 BKN034 28/23 A3004 RMK AO2 T02830225
K18A 191535Z AUTO 10005KT 10SM BKN017 OVC033 27/23 A3004 RMK AO2 T02740227
K18A 191515Z AUTO 12009KT 10SM BKN015 BKN019 OVC033 27/23 A3004 RMK AO2 T02680225
K18A 191455Z AUTO 11010KT 10SM BKN013 OVC020 26/23 A3004 RMK AO2 T02620226
K18A 191435Z AUTO 10006KT 10SM BKN011 OVC019 25/23 A3004 RMK AO2 T02520225
K18A 191415Z AUTO 10006KT 10SM OVC011 25/23 A3004 RMK AO2 T02510226
K18A 191355Z AUTO 10007KT 10SM OVC009 25/23 A3004 RMK AO2 T02510226
K18A 191335Z AUTO 09007KT 10SM OVC011 25/23 A3004 RMK AO2 T02520226
K18A 191315Z AUTO 10005KT 10SM BKN011 OVC018 25/23 A3003 RMK AO2 T02500225
K18A 191255Z AUTO 09003KT 10SM BKN015 25/22 A3003 RMK AO2 T02470221
K18A 191235Z AUTO 09004KT 10SM SCT008 SCT015 24/22 A3003 RMK AO2 T02430215
K18A 191215Z AUTO 07003KT 10SM OVC008 24/21 A3003 RMK AO2 T02350210
K18A 191155Z AUTO 08003KT 10SM BKN008 23/21 A3002 RMK AO2 T02310208 10233 20215
K18A 191135Z AUTO 05003KT 10SM SCT050 23/21 A3001 RMK AO2 T02300205
K18A 191115Z AUTO 06003KT 10SM SCT012 BKN050 23/20 A3001 RMK AO2 T02260201
K18A 191055Z AUTO 07003KT 10SM SCT050 22/20 A3000 RMK AO2 T02230200
K18A 191035Z AUTO 05003KT 10SM SCT050 22/20 A2999 RMK AO2 T02220200
K18A 191015Z AUTO 05004KT 10SM SCT047 22/20 A2998 RMK AO2 T02230201
K18A 190955Z AUTO 04003KT 10SM CLR 23/20 A2997 RMK AO2 T02250202
K18A 190935Z AUTO 04003KT 10SM CLR 23/20 A2997 RMK AO2 T02250203
K18A 190915Z AUTO 06003KT 10SM CLR 22/21 A2996 RMK AO2 T02240206
K18A 190855Z AUTO 00000KT 10SM CLR 22/21 A2996 RMK AO2 T02230208
K18A 190835Z AUTO 00000KT 10SM SCT040 23/21 A2996 RMK AO2 T02250210
K18A 190815Z AUTO 04003KT 10SM SCT040 22/21 A2996 RMK AO2 T02220211
K18A 190755Z AUTO 04003KT 7SM CLR 22/21 A2996 RMK AO2 T02170214
K18A 190735Z AUTO 00000KT 7SM CLR 22/21 A2996 RMK AO2 T02180212
K18A 190715Z AUTO 00000KT 10SM CLR 22/21 A2995 RMK AO2 T02230212
K18A 190655Z AUTO 00000KT 10SM SCT090 23/22 A2996 RMK AO2 T02260215
K18A 190635Z AUTO 00000KT 10SM SCT090 23/22 A2997 RMK AO2 T02290215
K18A 190615Z AUTO 05003KT 10SM SCT065 23/22 A2997 RMK AO2 T02320216
K18A 190555Z AUTO 05003KT 10SM BKN055 23/22 A2997 RMK AO2 T02320219 10290 20228 403260206
K18A 190535Z AUTO 00000KT 10SM BKN055 23/22 A2998 RMK AO2 T02320218
K18A 190515Z AUTO 00000KT 10SM SCT055 23/22 A2997 RMK AO2 T02340217
K18A 190455Z AUTO 01003KT 10SM SCT055 23/22 A2997 RMK AO2 T02340215
K18A 190435Z AUTO 01003KT 10SM SCT055 23/21 A2997 RMK AO2 T02340212
K18A 190415Z AUTO 00000KT 10SM SCT120 23/21 A2997 RMK AO2 T02290207
K18A 190355Z AUTO 00000KT 10SM SCT120 23/21 A2997 RMK AO2 T02330208
K18A 190335Z AUTO 00000KT 10SM CLR 24/21 A2997 RMK AO2 T02390208
K18A 190315Z AUTO 13003KT 10SM CLR 26/21 A2998 RMK AO2 T02590208
K18A 190255Z AUTO 13004KT 10SM CLR 26/21 A2998 RMK AO2 T02600210
K18A 190235Z AUTO 13004KT 10SM CLR 26/21 A2997 RMK AO2 T02630210
K18A 190215Z AUTO 13004KT 10SM CLR 26/21 A2997 RMK AO2 T02640210
K18A 190155Z AUTO 13004KT 10SM CLR 27/21 A2995 RMK AO2 T02650212
K18A 190135Z AUTO 13004KT 10SM CLR 27/22 A2995 RMK AO2 LTG DSNT N T02660215
K18A 190115Z AUTO 12003KT 10SM CLR 27/22 A2994 RMK AO2 T02700216
K18A 190055Z AUTO 13003KT 10SM CLR 27/22 A2994 RMK AO2 T02710220
K18A 190035Z AUTO 12003KT 10SM CLR 27/22 A2994 RMK AO2 T02690224
K18A 190015Z AUTO 00000KT 10SM CLR 28/22 A2994 RMK AO2 T02840221
K18A 182355Z AUTO 00000KT 10SM CLR 29/22 A2993 RMK AO2 T02910220 10326 20291
K18A 182335Z AUTO 14003KT 10SM SCT047 SCT060 SCT075 30/22 A2992 RMK AO2 T02980218
K18A 182315Z AUTO 00000KT 10SM SCT070 SCT075 30/22 A2992 RMK AO2 T03010218
K18A 182255Z AUTO 14003KT 10SM CLR 32/21 A2992 RMK AO2 T03170210
K18A 182235Z AUTO 12004KT 10SM BKN046 BKN055 32/21 A2992 RMK AO2 T03200208
K18A 182215Z AUTO 00000KT 10SM BKN046 OVC055 32/21 A2992 RMK AO2 T03240209
K18A 182155Z AUTO 00000KT 10SM BKN046 BKN065 32/21 A2992 RMK AO2 T03230209
K18A 182135Z AUTO 00000KT 10SM SCT044 32/21 A2992 RMK AO2 T03200207
K18A 182115Z AUTO 00000KT 10SM BKN044 BKN055 30/21 A2993 RMK AO2 T03030214
K18A 182055Z AUTO 00000KT 10SM SCT044 32/21 A2993 RMK AO2 T03200210
K18A 182035Z AUTO 00000KT 10SM SCT044 31/21 A2994 RMK AO2 T03070211
K18A 182015Z AUTO 00000KT 10SM CLR 32/21 A2994 RMK AO2 T03210209
K18A 181955Z AUTO 15004KT 10SM CLR 32/21 A2994 RMK AO2 T03220209
K18A 181935Z AUTO 25003KT 10SM SCT043 31/21 A2995 RMK AO2 T03140210
K18A 181915Z AUTO 00000KT 10SM SCT041 32/21 A2997 RMK AO2 T03180207
K18A 181855Z AUTO 18004KT 10SM CLR 31/21 A2998 RMK AO2 T03140207
K18A 181835Z AUTO 16004KT 10SM CLR 31/21 A2998 RMK AO2 LTG DSNT NW T03090205
K18A 181815Z AUTO 12004KT 10SM CLR 31/20 A2999 RMK AO2 T03080204
K18A 181755Z AUTO 13005KT 10SM CLR 30/21 A2999 RMK AO2 T03040209 10306 20225
K18A 181735Z AUTO 14004KT 10SM CLR 30/21 A2999 RMK AO2 T02980207
K18A 181715Z AUTO 00000KT 10SM CLR 30/21 A3000 RMK AO2 T03010210
K18A 181655Z AUTO 12004KT 10SM CLR 30/21 A3001 RMK AO2 T02990208
K18A 181640Z AUTO 11006KT 10SM CLR 29/21 A3001 RMK AO2 T02920208
K18A 181615Z AUTO 14006KT 10SM CLR 30/21 A3001 RMK AO2 T02950208
K18A 181555Z AUTO 12007KT 10SM CLR 30/21 A3001 RMK AO2 T02990214
K18A 181535Z AUTO 10007KT 10SM CLR 29/21 A3002 RMK AO2 T02860212
K18A 181515Z AUTO 11005KT 10SM SCT110 28/22 A3002 RMK AO2 T02810220
K18A 181455Z AUTO 00000KT 10SM SCT110 28/23 A3001 RMK AO2 T02780229
K18A 181435Z AUTO 00000KT 10SM SCT110 27/23 A3001 RMK AO2 T02720228
K18A 181415Z AUTO 00000KT 10SM BKN110 27/23 A3001 RMK AO2 T02710230
K18A 181355Z AUTO 00000KT 10SM SCT110 27/23 A3001 RMK AO2 T02700231
K18A 181335Z AUTO 00000KT 10SM BKN110 25/23 A3002 RMK AO2 T02520230
K18A 181315Z AUTO 00000KT 10SM BKN110 24/23 A3002 RMK AO2 T02430225
K18A 181255Z AUTO 00000KT 10SM SCT120 24/23 A3001 RMK AO2 T02390228
K18A 181235Z AUTO 00000KT 7SM CLR 23/23 A3001 RMK AO2 T02300229
K18A 181215Z AUTO 00000KT 5SM BR CLR 23/23 A3000 RMK AO2 T02280228
K18A 181155Z AUTO 00000KT 4SM BR CLR 22/22 A2998 RMK AO2 T02240224 10225 20206
K18A 181135Z AUTO 00000KT 4SM BR CLR 22/22 A2998 RMK AO2 T02240224
K18A 181115Z AUTO 00000KT 5SM BR CLR 21/21 A2997 RMK AO2 T02130213
K18A 181055Z AUTO 00000KT 4SM BR SCT001 21/21 A2997 RMK AO2 T02090209
K18A 181035Z AUTO 00000KT 4SM BR CLR 21/21 A2996 RMK AO2 T02060206
K18A 181015Z AUTO 00000KT 3SM BR SCT001 21/21 A2995 RMK AO2 T02090209
K18A 180955Z AUTO 00000KT 1 1/2SM BR BKN001 21/21 A2995 RMK AO2 T02100210
K18A 180935Z AUTO 00000KT M1/4SM FG OVC001 22/22 A2995 RMK AO2 T02150215
K18A 180915Z AUTO 00000KT M1/4SM FG OVC001 21/21 A2994 RMK AO2 T02140214